Time;durP1;ratioP1;P1;durP2;ratioP2;P2;SDS_P1;SDS_P2;PMS_P1;PMS_P2;Temp;Humidity;BMP_temperature;BMP_pressure;BME280_temperature;BME280_humidity;BME280_pressure;Samples;Min_cycle;Max_cycle;Signal;HPM_P1;HPM_P2
2024/01/02 00:01:17;;;;;;;33.90;19.00;;;;;;;4.77;99.19;99505.41;111470;239;40540;-54
2024/01/02 00:03:55;;;;;;;28.80;17.70;;;;;;;4.74;99.12;99506.31;111477;239;40152;-54
2024/01/02 00:06:35;;;;;;;32.60;17.90;;;;;;;4.68;99.17;99511.26;111505;239;40546;-58
2024/01/02 00:09:13;;;;;;;29.10;18.60;;;;;;;4.67;99.18;99509.95;111489;239;39520;-60
2024/01/02 00:11:55;;;;;;;28.80;17.30;;;;;;;4.65;99.20;99513.38;111496;239;38941;-56
2024/01/02 00:14:32;;;;;;;30.90;18.60;;;;;;;4.64;99.32;99510.50;111532;239;40717;-57
2024/01/02 00:17:08;;;;;;;31.30;18.30;;;;;;;4.65;99.36;99510.92;111498;239;39877;-61
2024/01/02 00:19:49;;;;;;;29.20;18.30;;;;;;;4.66;99.29;99510.73;111577;239;39802;-60
2024/01/02 00:22:29;;;;;;;34.00;17.80;;;;;;;4.67;99.38;99514.90;111622;239;39101;-57
2024/01/02 00:25:08;;;;;;;31.70;17.60;;;;;;;4.70;99.38;99513.92;111591;240;39740;-57
2024/01/02 00:27:44;;;;;;;30.00;18.10;;;;;;;4.72;99.38;99520.93;111543;239;40137;-57
2024/01/02 00:30:19;;;;;;;31.40;18.80;;;;;;;4.74;99.25;99515.79;111560;239;39074;-57
2024/01/02 00:32:56;;;;;;;30.20;17.60;;;;;;;4.75;99.40;99517.98;111523;239;40984;-57
2024/01/02 00:35:40;;;;;;;32.20;18.70;;;;;;;4.74;99.42;99514.45;111477;239;39599;-56
2024/01/02 00:38:19;;;;;;;31.80;18.70;;;;;;;4.77;99.40;99514.86;111455;239;40001;-57
2024/01/02 00:40:57;;;;;;;31.60;18.30;;;;;;;4.79;99.33;99521.77;111506;239;38934;-57
2024/01/02 00:43:34;;;;;;;29.30;18.40;;;;;;;4.78;99.34;99522.62;111456;239;40601;-56
2024/01/02 00:46:12;;;;;;;31.80;18.20;;;;;;;4.77;99.34;99524.65;111504;239;39420;-59
2024/01/02 00:48:51;;;;;;;31.60;18.50;;;;;;;4.76;99.34;99524.47;111438;239;39105;-59
2024/01/02 00:51:29;;;;;;;31.40;18.00;;;;;;;4.74;99.39;99527.15;111498;239;39152;-60
2024/01/02 00:54:03;;;;;;;27.90;16.30;;;;;;;4.71;99.48;99527.80;111460;239;39711;-60
2024/01/02 00:56:50;;;;;;;27.70;16.50;;;;;;;4.68;99.42;99527.95;111481;239;39405;-60
2024/01/02 00:59:33;;;;;;;29.30;17.20;;;;;;;4.67;99.57;99526.48;111494;239;40415;-60
2024/01/02 01:02:08;;;;;;;31.50;17.90;;;;;;;4.69;99.51;99528.64;111493;239;39059;-59
2024/01/02 01:04:45;;;;;;;28.10;16.40;;;;;;;4.68;99.61;99530.88;111536;239;40141;-59
2024/01/02 01:07:21;;;;;;;27.50;16.40;;;;;;;4.70;99.48;99531.91;111496;239;38777;-55
2024/01/02 01:09:58;;;;;;;29.00;16.10;;;;;;;4.70;99.58;99531.14;111501;239;39129;-55
2024/01/02 01:12:41;;;;;;;26.70;16.50;;;;;;;4.70;99.53;99528.09;111546;239;39189;-55
2024/01/02 01:15:16;;;;;;;28.30;17.20;;;;;;;4.75;99.50;99526.17;111496;239;39368;-58
2024/01/02 01:17:50;;;;;;;24.20;14.60;;;;;;;4.74;99.49;99523.58;111499;239;40800;-58
2024/01/02 01:20:25;;;;;;;27.50;16.50;;;;;;;4.77;99.51;99522.88;111494;239;40112;-54
2024/01/02 01:23:03;;;;;;;26.90;15.20;;;;;;;4.75;99.55;99523.77;111479;239;39590;-54
2024/01/02 01:25:40;;;;;;;25.90;15.40;;;;;;;4.79;99.56;99524.66;111508;239;38941;-59
2024/01/02 01:28:20;;;;;;;24.10;14.70;;;;;;;4.82;99.51;99521.66;111391;239;40362;-59
2024/01/02 01:31:02;;;;;;;26.40;15.30;;;;;;;4.83;99.41;99520.83;111438;239;39946;-59
2024/01/02 01:33:40;;;;;;;25.70;15.00;;;;;;;4.83;99.44;99520.02;111472;239;39649;-59
2024/01/02 01:36:20;;;;;;;28.80;15.20;;;;;;;4.82;99.43;99522.20;111494;239;39324;-56
2024/01/02 01:38:58;;;;;;;26.70;14.60;;;;;;;4.78;99.35;99516.02;111471;239;39445;-55
2024/01/02 01:41:44;;;;;;;26.20;15.50;;;;;;;4.80;99.49;99525.80;111477;239;39046;-60
2024/01/02 01:44:26;;;;;;;25.50;15.80;;;;;;;4.78;99.50;99522.38;111494;239;39792;-59
2024/01/02 01:47:04;;;;;;;26.80;16.20;;;;;;;4.79;99.55;99518.98;111530;239;39970;-55
2024/01/02 01:49:48;;;;;;;25.40;15.80;;;;;;;4.77;99.59;99520.52;111529;239;39564;-56
2024/01/02 01:52:26;;;;;;;27.20;15.40;;;;;;;4.78;99.66;99520.77;111474;239;39780;-56
2024/01/02 01:55:07;;;;;;;25.20;15.30;;;;;;;4.77;99.67;99521.98;111586;239;38914;-60
2024/01/02 01:57:44;;;;;;;28.00;15.90;;;;;;;4.78;99.73;99521.05;111532;239;40754;-60
2024/01/02 02:00:21;;;;;;;26.70;15.30;;;;;;;4.79;99.70;99523.92;111544;239;40394;-56
2024/01/02 02:03:01;;;;;;;28.70;15.70;;;;;;;4.81;99.64;99523.52;111466;239;39423;-56
2024/01/02 02:05:38;;;;;;;30.10;17.30;;;;;;;4.83;99.55;99524.00;111486;239;40775;-60
2024/01/02 02:08:17;;;;;;;25.90;15.50;;;;;;;4.83;99.51;99523.14;111542;239;39245;-60
2024/01/02 02:10:52;;;;;;;28.60;16.20;;;;;;;4.81;99.67;99521.36;111500;239;39488;-58
2024/01/02 02:13:29;;;;;;;24.50;15.20;;;;;;;4.82;99.74;99525.02;111494;239;40311;-59
2024/01/02 02:16:07;;;;;;;26.70;15.00;;;;;;;4.84;99.58;99520.32;111469;239;40270;-60
2024/01/02 02:18:47;;;;;;;25.60;14.00;;;;;;;4.84;99.65;99523.56;111451;239;40974;-60
2024/01/02 02:21:23;;;;;;;25.70;13.50;;;;;;;4.87;99.71;99525.73;111479;239;40082;-60
2024/01/02 02:24:01;;;;;;;24.30;13.30;;;;;;;4.88;99.53;99526.75;111473;239;39750;-60
2024/01/02 02:26:42;;;;;;;25.90;15.00;;;;;;;4.91;99.60;99528.30;111485;239;39814;-55
2024/01/02 02:29:18;;;;;;;26.60;14.10;;;;;;;4.92;99.66;99526.17;111487;239;39395;-55
2024/01/02 02:31:57;;;;;;;25.20;15.20;;;;;;;4.96;99.51;99527.98;111505;239;40289;-55
2024/01/02 02:34:40;;;;;;;24.50;14.90;;;;;;;4.99;99.34;99524.42;111481;239;41095;-56
2024/01/02 02:37:17;;;;;;;25.80;15.40;;;;;;;4.99;99.43;99528.91;111486;239;40419;-59
2024/01/02 02:39:55;;;;;;;30.00;15.60;;;;;;;4.95;99.40;99528.83;111444;239;40125;-57
2024/01/02 02:42:35;;;;;;;25.30;13.90;;;;;;;4.96;99.41;99528.56;111480;239;39955;-55
2024/01/02 02:45:11;;;;;;;23.70;14.00;;;;;;;4.93;99.38;99523.49;111475;239;40244;-59
2024/01/02 02:47:52;;;;;;;22.50;14.30;;;;;;;4.91;99.45;99522.23;111543;239;40160;-59
2024/01/02 02:50:27;;;;;;;25.30;13.60;;;;;;;4.86;99.57;99524.23;111579;239;39373;-59
2024/01/02 02:53:04;;;;;;;23.50;13.40;;;;;;;4.86;99.60;99524.86;111491;239;40549;-59
2024/01/02 02:55:47;;;;;;;23.30;13.30;;;;;;;4.86;99.64;99524.49;111550;239;39265;-60
2024/01/02 02:58:26;;;;;;;23.00;12.50;;;;;;;4.86;99.64;99523.45;111461;239;40432;-59
2024/01/02 03:01:02;;;;;;;21.40;12.50;;;;;;;4.85;99.61;99525.50;111529;239;39573;-55
2024/01/02 03:03:40;;;;;;;22.50;12.50;;;;;;;4.89;99.66;99525.84;111513;239;39609;-55
2024/01/02 03:06:20;;;;;;;20.80;12.70;;;;;;;4.90;99.73;99527.45;111468;239;38863;-55
2024/01/02 03:08:58;;;;;;;19.80;11.30;;;;;;;4.95;99.72;99524.35;111472;239;38858;-55
2024/01/02 03:11:40;;;;;;;21.50;11.90;;;;;;;4.94;99.64;99522.55;111429;239;40917;-59
2024/01/02 03:14:20;;;;;;;22.70;12.60;;;;;;;4.94;99.68;99519.53;111475;239;39910;-60
2024/01/02 03:17:04;;;;;;;24.70;13.40;;;;;;;4.98;99.69;99521.85;111473;239;41168;-59
2024/01/02 03:19:56;;;;;;;20.80;12.20;;;;;;;5.01;99.58;99524.12;111491;239;41035;-58
2024/01/02 03:22:34;;;;;;;18.90;11.50;;;;;;;4.99;99.62;99520.95;111448;239;39860;-59
2024/01/02 03:25:13;;;;;;;24.00;11.30;;;;;;;4.99;99.62;99527.27;111476;239;39851;-59
2024/01/02 03:27:51;;;;;;;17.80;11.40;;;;;;;5.00;99.58;99523.83;111513;239;40554;-59
2024/01/02 03:30:29;;;;;;;20.10;11.50;;;;;;;5.02;99.66;99522.34;111489;239;39761;-59
2024/01/02 03:33:14;;;;;;;20.80;11.20;;;;;;;4.97;99.74;99519.31;111458;239;40843;-59
2024/01/02 03:35:53;;;;;;;20.20;11.40;;;;;;;5.00;99.72;99511.67;111525;239;40096;-60
2024/01/02 03:38:31;;;;;;;23.20;11.50;;;;;;;5.01;99.67;99514.12;111468;239;40257;-60
2024/01/02 03:41:08;;;;;;;22.60;11.90;;;;;;;5.01;99.67;99515.98;111536;239;38974;-55
2024/01/02 03:43:43;;;;;;;20.90;10.80;;;;;;;4.98;99.70;99518.15;111496;239;39544;-55
2024/01/02 03:46:22;;;;;;;21.50;11.20;;;;;;;5.00;99.80;99515.38;111380;239;39023;-55
2024/01/02 03:49:01;;;;;;;17.60;10.60;;;;;;;5.01;99.71;99516.75;111571;239;38974;-54
2024/01/02 03:51:40;;;;;;;18.60;10.20;;;;;;;5.03;99.75;99517.75;111608;239;39972;-59
2024/01/02 03:54:20;;;;;;;22.30;10.70;;;;;;;5.06;99.69;99517.27;111563;239;39676;-59
2024/01/02 03:57:02;;;;;;;19.60;10.70;;;;;;;5.11;99.66;99514.46;111640;239;39366;-56
2024/01/02 03:59:45;;;;;;;19.90;11.40;;;;;;;5.07;99.71;99515.14;111571;239;40357;-55
2024/01/02 04:02:23;;;;;;;19.20;10.50;;;;;;;5.04;99.78;99512.66;111575;239;39796;-59
2024/01/02 04:05:20;;;;;;;19.00;10.90;;;;;;;5.06;99.77;99512.82;111589;239;39716;-58
2024/01/02 04:07:58;;;;;;;18.20;9.80;;;;;;;5.04;99.71;99516.16;111600;239;39295;-57
2024/01/02 04:10:34;;;;;;;19.00;10.70;;;;;;;5.01;99.66;99512.58;111575;239;39931;-57
2024/01/02 04:13:09;;;;;;;17.00;10.00;;;;;;;5.01;99.69;99514.75;111580;239;41274;-58
2024/01/02 04:15:45;;;;;;;19.50;9.70;;;;;;;5.02;99.71;99513.77;111578;239;39240;-59
2024/01/02 04:18:22;;;;;;;16.80;10.40;;;;;;;5.03;99.79;99514.84;111516;239;39843;-58
2024/01/02 04:21:03;;;;;;;17.10;9.30;;;;;;;5.04;99.60;99515.70;111588;239;39126;-54
2024/01/02 04:23:41;;;;;;;17.90;9.50;;;;;;;5.01;99.90;99515.52;111595;239;40288;-55
2024/01/02 04:26:21;;;;;;;18.50;9.60;;;;;;;4.98;99.96;99513.66;111603;239;40036;-54
2024/01/02 04:29:03;;;;;;;17.10;9.50;;;;;;;5.01;99.97;99510.80;111526;239;39215;-54
2024/01/02 04:31:39;;;;;;;18.80;9.70;;;;;;;5.05;99.95;99509.17;111496;239;39798;-55
2024/01/02 04:34:22;;;;;;;16.60;10.10;;;;;;;5.06;99.83;99512.58;111394;240;41085;-56
2024/01/02 04:37:01;;;;;;;15.10;9.20;;;;;;;5.09;99.85;99509.41;111520;239;40324;-55
2024/01/02 04:39:45;;;;;;;17.30;10.40;;;;;;;5.08;99.74;99509.24;111460;239;40763;-55
2024/01/02 04:42:27;;;;;;;16.00;9.50;;;;;;;5.11;99.86;99510.91;111481;239;39391;-55
2024/01/02 04:45:03;;;;;;;18.80;10.30;;;;;;;5.10;99.91;99507.23;111452;239;39131;-55
2024/01/02 04:47:43;;;;;;;21.10;11.30;;;;;;;5.13;99.95;99512.88;111466;240;39947;-55
2024/01/02 04:50:20;;;;;;;18.20;9.40;;;;;;;5.15;99.94;99508.17;111483;239;39288;-54
2024/01/02 04:53:01;;;;;;;16.80;9.10;;;;;;;5.19;99.83;99511.02;111451;239;40362;-54
2024/01/02 04:55:39;;;;;;;17.10;9.80;;;;;;;5.24;99.83;99511.17;111498;239;39454;-58
2024/01/02 04:58:24;;;;;;;15.60;10.00;;;;;;;5.25;99.80;99512.09;111360;239;40819;-58
2024/01/02 05:01:06;;;;;;;18.50;9.70;;;;;;;5.25;99.77;99511.27;111482;239;40581;-54
2024/01/02 05:03:45;;;;;;;18.20;10.20;;;;;;;5.20;99.72;99512.06;111496;239;40369;-54
2024/01/02 05:06:23;;;;;;;18.80;10.60;;;;;;;5.19;99.79;99515.11;111484;240;39808;-55
2024/01/02 05:09:02;;;;;;;23.00;9.50;;;;;;;5.17;99.74;99509.87;111495;239;39022;-55
2024/01/02 05:11:41;;;;;;;18.60;10.20;;;;;;;5.19;99.76;99515.67;111482;239;39167;-54
2024/01/02 05:14:21;;;;;;;17.50;10.50;;;;;;;5.16;99.94;99520.45;111506;239;40970;-54
2024/01/02 05:17:00;;;;;;;21.50;11.20;;;;;;;5.15;99.97;99518.52;111487;239;38961;-58
2024/01/02 05:19:39;;;;;;;19.80;10.30;;;;;;;5.15;99.92;99514.50;111493;239;39035;-57
2024/01/02 05:22:16;;;;;;;18.80;9.90;;;;;;;5.17;99.95;99520.08;111466;239;39655;-58
2024/01/02 05:24:53;;;;;;;25.30;13.30;;;;;;;5.16;99.95;99516.98;111496;239;41160;-55
2024/01/02 05:27:28;;;;;;;18.90;10.60;;;;;;;5.16;99.99;99520.65;111376;240;41095;-54
2024/01/02 05:30:08;;;;;;;21.80;11.50;;;;;;;5.18;99.99;99520.60;111527;239;39256;-55
2024/01/02 05:32:45;;;;;;;17.90;11.00;;;;;;;5.20;99.98;99522.13;111474;239;39429;-55
2024/01/02 05:35:28;;;;;;;16.60;10.80;;;;;;;5.19;100.00;99525.64;111517;239;40200;-54
2024/01/02 05:38:07;;;;;;;18.50;11.60;;;;;;;5.22;100.00;99528.58;111342;240;39279;-54
2024/01/02 05:40:51;;;;;;;16.20;10.10;;;;;;;5.22;99.95;99526.20;111535;239;40462;-59
2024/01/02 05:43:32;;;;;;;18.00;11.00;;;;;;;5.23;99.96;99526.10;111442;239;39720;-58
2024/01/02 05:46:14;;;;;;;18.70;10.90;;;;;;;5.22;99.98;99527.61;111517;239;39599;-55
2024/01/02 05:48:54;;;;;;;17.20;11.00;;;;;;;5.23;100.00;99532.39;111482;239;39623;-55
2024/01/02 05:51:29;;;;;;;18.50;11.10;;;;;;;5.26;100.00;99530.96;111562;239;39727;-58
2024/01/02 05:54:03;;;;;;;17.40;10.90;;;;;;;5.29;100.00;99531.25;111542;239;40592;-59
2024/01/02 05:56:45;;;;;;;16.80;10.20;;;;;;;5.30;99.96;99530.88;111268;239;40358;-59
2024/01/02 05:59:25;;;;;;;19.00;11.30;;;;;;;5.29;99.99;99533.99;111472;239;39498;-59
2024/01/02 06:02:07;;;;;;;17.90;10.70;;;;;;;5.31;100.00;99535.75;111453;239;39208;-59
2024/01/02 06:04:43;;;;;;;15.80;10.70;;;;;;;5.29;100.00;99532.37;111529;239;39741;-60
2024/01/02 06:07:31;;;;;;;16.00;10.60;;;;;;;5.29;99.99;99531.86;111461;239;40756;-60
2024/01/02 06:10:11;;;;;;;15.20;10.70;;;;;;;5.29;99.99;99535.08;111453;239;38984;-60
2024/01/02 06:12:51;;;;;;;18.30;11.30;;;;;;;5.31;99.98;99530.39;111470;239;39635;-60
2024/01/02 06:15:27;;;;;;;20.50;11.90;;;;;;;5.29;100.00;99534.09;111450;239;39662;-54
2024/01/02 06:18:05;;;;;;;17.90;11.60;;;;;;;5.31;100.00;99532.33;111472;239;38964;-55
2024/01/02 06:20:46;;;;;;;15.10;10.50;;;;;;;5.35;99.99;99531.08;111511;239;39537;-55
2024/01/02 06:23:27;;;;;;;14.80;11.10;;;;;;;5.36;100.00;99535.16;111484;239;40673;-54
2024/01/02 06:26:10;;;;;;;17.40;12.00;;;;;;;5.35;100.00;99530.81;111512;239;40109;-59
2024/01/02 06:28:48;;;;;;;19.80;12.20;;;;;;;5.36;99.99;99531.58;111506;240;40632;-58
2024/01/02 06:31:33;;;;;;;19.70;11.70;;;;;;;5.35;99.99;99536.43;111546;239;40353;-61
2024/01/02 06:34:14;;;;;;;18.20;12.10;;;;;;;5.37;100.00;99540.91;111482;240;39548;-59
2024/01/02 06:36:49;;;;;;;17.60;12.40;;;;;;;5.34;100.00;99542.63;111581;239;40012;-56
2024/01/02 06:39:25;;;;;;;17.70;12.20;;;;;;;5.35;100.00;99543.64;111575;239;39639;-55
2024/01/02 06:42:05;;;;;;;19.40;13.10;;;;;;;5.38;99.99;99549.54;111493;239;39155;-57
2024/01/02 06:44:40;;;;;;;17.20;11.60;;;;;;;5.34;100.00;99547.66;111549;239;39995;-59
2024/01/02 06:47:16;;;;;;;18.70;11.50;;;;;;;5.32;99.99;99550.57;111542;239;39317;-55
2024/01/02 06:49:56;;;;;;;19.20;12.50;;;;;;;5.34;100.00;99547.71;111521;239;39009;-59
2024/01/02 06:52:32;;;;;;;16.10;11.60;;;;;;;5.35;99.99;99544.38;111450;239;39608;-59
2024/01/02 06:55:10;;;;;;;17.50;11.30;;;;;;;5.34;100.00;99540.55;111508;239;39004;-55
2024/01/02 06:57:47;;;;;;;15.70;11.40;;;;;;;5.32;100.00;99547.03;111505;239;39088;-55
2024/01/02 07:00:23;;;;;;;14.10;10.70;;;;;;;5.31;100.00;99550.92;111509;239;39676;-57
2024/01/02 07:03:05;;;;;;;15.50;10.10;;;;;;;5.26;100.00;99552.02;111505;239;41089;-59
2024/01/02 07:05:42;;;;;;;13.50;10.00;;;;;;;5.25;100.00;99552.08;111382;240;39547;-54
2024/01/02 07:08:19;;;;;;;15.90;9.30;;;;;;;5.24;100.00;99547.98;111525;239;40109;-54
2024/01/02 07:10:57;;;;;;;14.70;10.40;;;;;;;5.26;100.00;99544.45;111473;239;40476;-59
2024/01/02 07:13:38;;;;;;;14.10;10.10;;;;;;;5.29;100.00;99545.45;111457;239;39241;-60
2024/01/02 07:16:19;;;;;;;14.10;9.60;;;;;;;5.27;100.00;99545.50;111488;239;40699;-55
2024/01/02 07:18:59;;;;;;;13.80;9.80;;;;;;;5.28;100.00;99547.98;111518;239;39604;-55
2024/01/02 07:21:37;;;;;;;12.80;10.00;;;;;;;5.31;100.00;99545.52;111556;239;39118;-58
2024/01/02 07:24:25;;;;;;;13.20;9.50;;;;;;;5.33;100.00;99544.77;111525;239;40022;-59
2024/01/02 07:27:04;;;;;;;12.40;9.20;;;;;;;5.36;100.00;99543.98;111579;239;39741;-55
2024/01/02 07:29:45;;;;;;;11.80;9.60;;;;;;;5.39;100.00;99539.30;111568;239;41469;-55
2024/01/02 07:32:26;;;;;;;11.50;9.80;;;;;;;5.39;100.00;99539.24;111500;239;39718;-55
2024/01/02 07:35:04;;;;;;;13.10;9.70;;;;;;;5.38;100.00;99537.91;111548;239;40801;-59
2024/01/02 07:37:43;;;;;;;11.40;9.30;;;;;;;5.41;100.00;99539.37;111576;239;40624;-59
2024/01/02 07:40:22;;;;;;;11.30;9.10;;;;;;;5.44;100.00;99538.64;111564;239;40234;-53
2024/01/02 07:43:00;;;;;;;12.20;9.00;;;;;;;5.50;100.00;99543.34;111615;239;39354;-58
2024/01/02 07:45:37;;;;;;;13.30;9.20;;;;;;;5.48;100.00;99543.24;110875;240;524049;-54
2024/01/02 07:48:16;;;;;;;11.90;8.60;;;;;;;5.49;100.00;99543.31;111592;239;39105;-53
2024/01/02 07:50:55;;;;;;;10.60;9.00;;;;;;;5.48;100.00;99546.05;111520;239;42603;-58
2024/01/02 07:53:36;;;;;;;14.10;9.30;;;;;;;5.51;99.93;99542.02;111637;239;39419;-59
2024/01/02 07:56:10;;;;;;;11.40;8.50;;;;;;;5.47;99.95;99541.88;111580;239;39967;-60
2024/01/02 07:58:46;;;;;;;11.70;7.50;;;;;;;5.48;99.98;99544.48;111589;239;40499;-58
2024/01/02 08:01:29;;;;;;;10.70;8.40;;;;;;;5.46;100.00;99547.34;111617;239;38948;-58
2024/01/02 08:04:08;;;;;;;11.20;8.20;;;;;;;5.46;99.99;99547.98;111483;239;40530;-58
2024/01/02 08:06:42;;;;;;;10.10;7.90;;;;;;;5.46;100.00;99551.13;111474;239;40303;-54
2024/01/02 08:09:21;;;;;;;9.60;8.00;;;;;;;5.45;100.00;99550.56;111531;239;39558;-54
2024/01/02 08:11:58;;;;;;;10.00;8.00;;;;;;;5.48;100.00;99553.77;111525;239;39252;-62
2024/01/02 08:14:35;;;;;;;12.10;7.80;;;;;;;5.48;100.00;99550.67;111522;239;39362;-57
2024/01/02 08:17:11;;;;;;;11.40;8.50;;;;;;;5.47;100.00;99550.70;111512;239;39793;-60
2024/01/02 08:19:49;;;;;;;11.40;8.50;;;;;;;5.48;100.00;99551.42;111550;239;39480;-61
2024/01/02 08:22:32;;;;;;;13.80;10.30;;;;;;;5.50;100.00;99550.10;111504;239;40424;-59
2024/01/02 08:25:09;;;;;;;10.20;8.10;;;;;;;5.51;100.00;99548.05;111464;239;40475;-58
2024/01/02 08:27:46;;;;;;;12.40;8.90;;;;;;;5.54;100.00;99545.79;111494;239;39809;-58
2024/01/02 08:30:23;;;;;;;13.40;9.10;;;;;;;5.54;100.00;99542.48;111483;239;40448;-58
2024/01/02 08:32:58;;;;;;;14.10;8.90;;;;;;;5.58;100.00;99541.63;111482;239;39011;-58
2024/01/02 08:35:36;;;;;;;10.90;9.10;;;;;;;5.63;100.00;99544.17;111355;239;42502;-55
2024/01/02 08:38:19;;;;;;;11.70;9.50;;;;;;;5.62;100.00;99540.30;111449;239;39386;-55
2024/01/02 08:41:00;;;;;;;11.60;9.40;;;;;;;5.63;100.00;99546.83;111493;239;39310;-60
2024/01/02 08:43:40;;;;;;;14.80;10.40;;;;;;;5.61;99.99;99548.48;111362;239;40455;-59
2024/01/02 08:46:19;;;;;;;15.90;11.50;;;;;;;5.63;100.00;99549.01;111474;239;39561;-59
2024/01/02 08:48:58;;;;;;;15.00;11.60;;;;;;;5.64;100.00;99551.47;111465;239;39590;-57
2024/01/02 08:51:38;;;;;;;14.60;11.50;;;;;;;5.70;99.98;99550.05;111489;239;38903;-58
2024/01/02 08:54:18;;;;;;;16.70;12.30;;;;;;;5.68;99.96;99549.56;111465;239;40972;-57
2024/01/02 08:56:56;;;;;;;14.40;11.20;;;;;;;5.69;99.91;99549.48;111486;239;41250;-58
2024/01/02 08:59:31;;;;;;;15.90;11.70;;;;;;;5.68;99.85;99547.27;111486;239;40916;-58
2024/01/02 09:02:07;;;;;;;14.60;10.60;;;;;;;5.70;99.91;99549.35;111578;239;39783;-63
2024/01/02 09:04:47;;;;;;;17.50;12.20;;;;;;;5.71;99.92;99549.29;111510;239;40087;-57
2024/01/02 09:07:23;;;;;;;14.90;11.10;;;;;;;5.72;99.84;99545.35;111484;239;39501;-59
2024/01/02 09:09:59;;;;;;;17.70;11.70;;;;;;;5.71;99.80;99546.89;111486;239;39805;-57
2024/01/02 09:12:33;;;;;;;16.60;12.20;;;;;;;5.76;99.93;99550.12;111389;239;41447;-55
2024/01/02 09:15:09;;;;;;;17.10;12.60;;;;;;;5.78;99.91;99552.91;111526;239;38867;-58
2024/01/02 09:17:43;;;;;;;15.60;12.90;;;;;;;5.76;99.99;99557.21;111497;239;39051;-58
2024/01/02 09:20:19;;;;;;;;;;;;;;;5.87;100.00;99559.33;111521;239;40386;-60
2024/01/02 09:22:54;;;;;;;16.80;13.40;;;;;;;5.93;100.00;99561.09;111485;239;40328;-58
2024/01/02 09:25:37;;;;;;;17.50;13.50;;;;;;;5.98;100.00;99565.70;111518;239;39725;-61
2024/01/02 09:28:19;;;;;;;16.40;13.50;;;;;;;6.03;100.00;99565.83;111457;239;41502;-56
2024/01/02 09:30:55;;;;;;;19.80;13.90;;;;;;;6.07;100.00;99565.20;111530;239;40293;-54
2024/01/02 09:33:38;;;;;;;15.50;13.20;;;;;;;6.13;100.00;99563.73;111504;239;40503;-53
2024/01/02 09:36:14;;;;;;;16.40;13.70;;;;;;;6.16;100.00;99564.11;111479;239;39497;-57
2024/01/02 09:38:55;;;;;;;18.40;15.10;;;;;;;6.21;100.00;99563.70;111531;239;40479;-59
2024/01/02 09:42:10;;;;;;;18.20;14.40;;;;;;;6.20;100.00;99562.02;111484;239;39211;-54
2024/01/02 09:45:03;;;;;;;21.90;14.40;;;;;;;6.27;100.00;99563.42;111481;239;40390;-56
2024/01/02 09:48:00;;;;;;;18.90;16.00;;;;;;;6.37;100.00;99567.50;111491;240;39749;-59
2024/01/02 09:50:40;;;;;;;;;;;;;;;6.38;100.00;99567.68;111528;239;39442;-55
2024/01/02 09:54:02;;;;;;;17.90;14.30;;;;;;;6.40;100.00;99566.11;111475;239;39441;-57
2024/01/02 09:56:49;;;;;;;20.10;14.70;;;;;;;6.38;99.98;99564.48;111504;239;39850;-56
2024/01/02 09:59:54;;;;;;;17.80;14.50;;;;;;;6.35;99.92;99570.08;111445;239;41115;-56
2024/01/02 10:02:55;;;;;;;19.70;15.40;;;;;;;6.30;99.85;99569.58;111405;240;39456;-60
2024/01/02 10:05:54;;;;;;;18.20;14.70;;;;;;;6.24;99.91;99570.60;111491;239;39212;-60
2024/01/02 10:09:04;;;;;;;19.50;14.20;;;;;;;6.20;99.81;99568.13;111523;240;39116;-61
2024/01/02 10:11:55;;;;;;;19.30;15.20;;;;;;;6.15;99.93;99570.13;111324;240;39751;-55
2024/01/02 10:14:49;;;;;;;17.60;14.50;;;;;;;6.14;99.87;99567.35;111439;240;39679;-58
2024/01/02 10:17:45;;;;;;;18.30;14.80;;;;;;;6.15;99.83;99567.28;111489;239;39561;-57
2024/01/02 10:20:41;;;;;;;18.20;15.00;;;;;;;6.11;99.94;99565.23;111512;239;39314;-60
2024/01/02 10:23:27;;;;;;;20.70;15.50;;;;;;;6.12;99.87;99556.02;111457;239;41315;-62
2024/01/02 10:26:08;;;;;;;15.20;13.50;;;;;;;6.12;99.94;99556.00;111510;239;39710;-60
2024/01/02 10:28:45;;;;;;;21.10;14.10;;;;;;;6.18;99.99;99549.73;111477;239;39317;-62
2024/01/02 10:31:34;;;;;;;16.50;13.40;;;;;;;6.24;99.99;99539.20;111480;239;39203;-57
2024/01/02 10:34:19;;;;;;;17.50;14.00;;;;;;;6.27;99.98;99534.38;111461;239;39914;-58
2024/01/02 10:37:05;;;;;;;14.50;13.00;;;;;;;6.28;99.98;99525.69;111467;239;39503;-61
2024/01/02 10:39:48;;;;;;;18.10;14.20;;;;;;;6.27;99.97;99526.30;111453;239;40612;-60
2024/01/02 10:43:05;;;;;;;15.40;13.60;;;;;;;6.25;99.87;99521.91;111498;240;39166;-60
2024/01/02 10:45:49;;;;;;;18.60;13.80;;;;;;;6.29;99.82;99518.44;111497;239;41130;-58
2024/01/02 10:48:45;;;;;;;17.10;13.30;;;;;;;6.30;99.81;99517.34;111494;239;39859;-60
2024/01/02 10:51:30;;;;;;;18.50;13.00;;;;;;;6.31;99.73;99508.85;111499;239;40451;-59
2024/01/02 10:54:09;;;;;;;15.40;13.60;;;;;;;6.32;99.70;99504.98;111491;239;39558;-59
2024/01/02 10:56:53;;;;;;;18.50;14.20;;;;;;;6.34;99.54;99502.96;111460;240;39806;-63
2024/01/02 10:59:56;;;;;;;15.60;13.40;;;;;;;6.32;99.66;99498.39;111474;239;40250;-63
2024/01/02 11:02:57;;;;;;;16.60;14.10;;;;;;;6.34;99.61;99499.23;111483;239;39718;-58
2024/01/02 11:05:46;;;;;;;17.80;13.80;;;;;;;6.39;99.55;99495.73;111478;239;39315;-62
2024/01/02 11:08:31;;;;;;;16.20;12.80;;;;;;;6.41;99.80;99494.90;111475;239;39239;-62
2024/01/02 11:11:22;;;;;;;18.70;14.30;;;;;;;6.46;99.50;99500.00;111467;239;40465;-58
2024/01/02 11:14:02;;;;;;;16.90;13.40;;;;;;;6.43;99.56;99498.39;111466;239;40865;-60
2024/01/02 11:16:42;;;;;;;16.00;13.20;;;;;;;6.43;99.43;99494.44;111472;239;39433;-62
2024/01/02 11:19:25;;;;;;;16.20;12.80;;;;;;;6.41;99.41;99492.00;111474;239;39372;-61
2024/01/02 11:22:15;;;;;;;19.50;13.90;;;;;;;6.38;99.67;99491.64;111481;239;41151;-60
2024/01/02 11:25:04;;;;;;;17.00;13.70;;;;;;;6.42;99.52;99490.86;111511;239;40531;-61
2024/01/02 11:27:43;;;;;;;17.70;14.40;;;;;;;6.43;99.41;99491.50;111522;240;39910;-62
2024/01/02 11:30:22;;;;;;;15.40;13.30;;;;;;;6.37;99.31;99491.48;111505;239;40131;-63
2024/01/02 11:33:13;;;;;;;17.20;13.40;;;;;;;6.37;99.32;99490.42;111495;239;39397;-63
2024/01/02 11:36:18;;;;;;;16.10;13.40;;;;;;;6.32;99.30;99488.86;111523;239;39247;-59
2024/01/02 11:39:07;;;;;;;21.00;14.20;;;;;;;6.29;99.33;99483.73;111541;239;39175;-58
2024/01/02 11:42:08;;;;;;;17.20;14.50;;;;;;;6.28;99.38;99479.64;111583;239;39875;-58
2024/01/02 11:44:58;;;;;;;17.60;13.80;;;;;;;6.29;99.35;99476.73;111512;239;39495;-54
2024/01/02 11:47:44;;;;;;;18.00;15.20;;;;;;;6.23;99.47;99475.61;111537;239;40200;-55
2024/01/02 11:50:24;;;;;;;18.40;14.40;;;;;;;6.29;99.39;99469.25;111389;239;39845;-59
2024/01/02 11:53:09;;;;;;;17.80;14.10;;;;;;;6.26;99.76;99466.86;111499;239;40244;-59
2024/01/02 11:55:50;;;;;;;15.60;12.90;;;;;;;6.35;99.53;99470.95;111521;239;40820;-58
2024/01/02 11:58:32;;;;;;;17.10;13.80;;;;;;;6.39;99.66;99470.08;111547;239;40829;-59
2024/01/02 12:01:23;;;;;;;17.00;14.10;;;;;;;6.42;99.78;99467.38;111520;239;40411;-56
2024/01/02 12:04:19;;;;;;;18.30;14.70;;;;;;;6.46;99.84;99457.45;111535;239;39415;-56
2024/01/02 12:07:08;;;;;;;16.70;13.70;;;;;;;6.51;99.83;99455.75;111512;239;41871;-59
2024/01/02 12:09:49;;;;;;;16.80;14.50;;;;;;;6.58;99.83;99451.02;111498;239;40749;-57
2024/01/02 12:12:38;;;;;;;19.40;14.60;;;;;;;6.62;99.97;99445.82;111527;239;38841;-59
2024/01/02 12:15:25;;;;;;;20.30;15.40;;;;;;;6.67;99.86;99441.70;111519;239;39591;-58
2024/01/02 12:18:10;;;;;;;18.10;15.10;;;;;;;6.72;99.81;99442.46;111561;239;40063;-59
2024/01/02 12:20:55;;;;;;;19.20;15.50;;;;;;;6.79;99.65;99437.34;111570;239;39627;-56
2024/01/02 12:23:40;;;;;;;21.00;16.80;;;;;;;6.84;99.48;99437.86;111561;239;39072;-56
2024/01/02 12:26:21;;;;;;;21.00;16.30;;;;;;;6.84;99.45;99436.33;111552;239;39568;-56
2024/01/02 12:29:02;;;;;;;19.80;15.80;;;;;;;6.84;99.42;99430.80;111574;239;41490;-56